ENAT/ALF METAR and TAF weather

Enter ICAO airport designator
Station Type Date Time Source
ENAT METAR 2021/01/16 02:50 UTC NOAA

ENAT 160250Z AUTO 30006KT 9999 FEW025/// SCT035/// BKN062/// 02/M01 Q1016 REFZRA RMK WIND 700FT 29012KT


Station Type Date Time Source
ENAT Decoded METAR 2021/01/16 02:50 UTC NOAA

Alta Lufthavn, Norway (ENAT) 69-59N 023-22E 3M
Jan 15, 2021 - 09:50 PM EST / 2021.01.16 0250 UTC
Wind: from the WNW (300 degrees) at 7 MPH (6 KT):0
Visibility: greater than 7 mile(s):0
Sky conditions: mostly cloudy
Temperature: 35 F (2 C)
Windchill: 28 F (-2 C):1
Dew Point: 30 F (-1 C)
Relative Humidity: 80%
Pressure (altimeter): 30.00 in. Hg (1016 hPa)
ob: ENAT 160250Z AUTO 30006KT 9999 FEW025/// SCT035/// BKN062/// 02/M01 Q1016 REFZRA RMK WIND 700FT 29012KT
cycle: 3

Station Type Date Time Source
ENAT TAF 2008/11/30 23:00 UTC NOAA

TAF TAF ENAT 302300Z 3023/0102 22005KT 7000 -SN FEW008 BKN020
TEMPO 3023/0102 3000 -SN VV012

Example: see airport list